createdAt,value
2022-11-12T00:00:59.466Z,10.70
2022-11-12T00:03:27.256Z,12.07
2022-11-12T00:05:55.208Z,11.83
2022-11-12T00:08:23.375Z,12.43
2022-11-12T00:10:51.233Z,11.80
2022-11-12T00:13:18.977Z,11.97
2022-11-12T00:15:47.870Z,12.43
2022-11-12T00:18:16.838Z,11.87
2022-11-12T00:20:45.173Z,12.20
2022-11-12T00:23:12.818Z,12.03
2022-11-12T00:25:40.404Z,11.43
2022-11-12T00:28:09.963Z,11.80
2022-11-12T00:30:39.679Z,11.30
2022-11-12T00:33:07.752Z,11.50
2022-11-12T00:35:37.015Z,11.57
2022-11-12T00:38:04.697Z,11.57
2022-11-12T00:40:32.320Z,12.37
2022-11-12T00:42:59.953Z,11.87
2022-11-12T00:45:27.537Z,12.37
2022-11-12T00:47:56.780Z,12.23
2022-11-12T00:50:24.882Z,11.03
2022-11-12T00:52:54.821Z,11.47
2022-11-12T00:55:22.709Z,12.20
2022-11-12T00:57:50.415Z,11.53
2022-11-12T01:00:20.296Z,10.43
2022-11-12T01:02:51.330Z,11.37
2022-11-12T01:05:20.097Z,11.67
2022-11-12T01:07:53.158Z,11.37
2022-11-12T01:10:24.692Z,11.17
2022-11-12T01:12:52.319Z,10.30
2022-11-12T01:15:20.036Z,9.30
2022-11-12T01:17:47.684Z,8.60
2022-11-12T01:20:15.796Z,10.10
2022-11-12T01:22:43.387Z,9.57
2022-11-12T01:25:11.032Z,9.30
2022-11-12T01:27:40.006Z,10.43
2022-11-12T01:30:08.758Z,9.17
2022-11-12T01:32:37.713Z,9.13
2022-11-12T01:35:05.895Z,8.43
2022-11-12T01:37:33.459Z,8.80
2022-11-12T01:40:01.025Z,8.63
2022-11-12T01:42:31.103Z,8.50
2022-11-12T01:45:00.016Z,8.97
2022-11-12T01:47:31.827Z,8.53
2022-11-12T01:50:02.195Z,7.87
2022-11-12T01:52:34.162Z,8.73
2022-11-12T01:55:06.069Z,9.33
2022-11-12T01:57:41.263Z,8.67
2022-11-12T02:00:13.538Z,8.10
2022-11-12T02:02:41.881Z,8.80
2022-11-12T02:05:11.660Z,8.37
2022-11-12T02:07:42.006Z,7.97
2022-11-12T02:10:10.986Z,8.43
2022-11-12T02:12:56.768Z,9.53
2022-11-12T02:15:26.561Z,9.73
2022-11-12T02:17:54.310Z,10.17
2022-11-12T02:20:22.125Z,9.73
2022-11-12T02:22:51.167Z,10.30
2022-11-12T02:25:20.687Z,8.90
2022-11-12T02:27:51.811Z,9.17
2022-11-12T02:30:20.105Z,9.30
2022-11-12T02:32:47.646Z,8.93
2022-11-12T02:35:15.413Z,9.07
2022-11-12T02:37:43.051Z,8.87
2022-11-12T02:40:12.266Z,8.50
2022-11-12T02:42:39.869Z,8.87
2022-11-12T02:45:08.278Z,8.77
2022-11-12T02:47:35.926Z,8.23
2022-11-12T02:50:03.569Z,8.87
2022-11-12T02:52:32.282Z,8.47
2022-11-12T02:54:59.891Z,8.00
2022-11-12T02:57:29.793Z,8.37
2022-11-12T02:59:57.446Z,8.80
2022-11-12T03:02:25.193Z,7.60
2022-11-12T03:04:52.755Z,7.73
2022-11-12T03:07:20.405Z,7.90
2022-11-12T03:09:47.998Z,7.60
2022-11-12T03:12:15.664Z,7.10
2022-11-12T03:14:44.595Z,7.70
2022-11-12T03:17:12.207Z,6.87
2022-11-12T03:19:39.840Z,7.07
2022-11-12T03:22:07.448Z,7.43
2022-11-12T03:24:35.079Z,7.40
2022-11-12T03:27:02.663Z,7.83
2022-11-12T03:29:30.284Z,7.10
2022-11-12T03:31:59.215Z,7.20
2022-11-12T03:34:26.907Z,8.00
2022-11-12T03:36:54.473Z,7.57
2022-11-12T03:39:22.057Z,6.57
2022-11-12T03:41:49.609Z,7.13
2022-11-12T03:44:17.191Z,7.40
2022-11-12T03:46:44.761Z,6.70
2022-11-12T03:49:13.774Z,6.70
2022-11-12T03:51:41.379Z,6.37
2022-11-12T03:54:08.982Z,6.20
2022-11-12T03:56:36.653Z,6.00
2022-11-12T03:59:04.702Z,6.87
2022-11-12T04:01:32.685Z,6.00
2022-11-12T04:04:00.321Z,5.83
2022-11-12T04:06:47.118Z,5.60
2022-11-12T04:09:14.762Z,5.43
2022-11-12T04:11:42.370Z,6.17
2022-11-12T04:14:09.957Z,5.73
2022-11-12T04:16:55.307Z,6.37
2022-11-12T04:19:40.627Z,6.57
2022-11-12T04:22:11.868Z,6.03
2022-11-12T04:24:58.426Z,6.03
2022-11-12T04:27:27.910Z,5.90
2022-11-12T04:30:13.425Z,5.30
2022-11-12T04:32:46.358Z,6.07
2022-11-12T04:35:14.170Z,6.70
2022-11-12T04:37:46.177Z,6.40
2022-11-12T04:40:32.842Z,7.53
2022-11-12T04:43:29.593Z,7.83
2022-11-12T04:45:57.951Z,7.40
2022-11-12T04:48:26.598Z,7.93
2022-11-12T04:50:56.819Z,7.50
2022-11-12T04:53:26.306Z,8.07
2022-11-12T04:55:54.924Z,8.10
2022-11-12T04:58:22.980Z,8.17
2022-11-12T05:00:51.546Z,8.17
2022-11-12T05:03:19.539Z,8.30
2022-11-12T05:05:47.189Z,8.30
2022-11-12T05:08:14.770Z,8.20
2022-11-12T05:10:43.707Z,8.90
2022-11-12T05:13:11.336Z,8.17
2022-11-12T05:15:38.949Z,7.83
2022-11-12T05:18:06.606Z,8.37
2022-11-12T05:20:34.226Z,7.50
2022-11-12T05:23:08.939Z,7.20
2022-11-12T05:25:37.049Z,7.90
2022-11-12T05:28:07.189Z,7.77
2022-11-12T05:30:35.333Z,8.70
2022-11-12T05:33:02.917Z,8.50
2022-11-12T05:35:30.555Z,8.53
2022-11-12T05:37:58.128Z,8.67
2022-11-12T05:40:25.752Z,9.17
2022-11-12T05:42:53.392Z,9.00
2022-11-12T05:45:22.323Z,8.60
2022-11-12T05:47:49.864Z,8.20
2022-11-12T05:50:17.491Z,8.37
2022-11-12T05:52:45.059Z,8.00
2022-11-12T05:55:12.667Z,7.40
2022-11-12T05:57:40.284Z,7.13
2022-11-12T06:00:09.621Z,7.57
2022-11-12T06:02:38.654Z,7.50
2022-11-12T06:05:06.773Z,7.60
2022-11-12T06:07:34.390Z,7.03
2022-11-12T06:10:02.134Z,7.80
2022-11-12T06:12:29.777Z,7.17
2022-11-12T06:14:57.461Z,7.43
2022-11-12T06:17:25.236Z,7.27
2022-11-12T06:19:54.190Z,7.57
2022-11-12T06:22:21.806Z,7.87
2022-11-12T06:24:49.478Z,8.20
2022-11-12T06:27:17.025Z,8.53
2022-11-12T06:29:44.625Z,8.03
2022-11-12T06:32:12.268Z,7.57
2022-11-12T06:34:39.852Z,7.43
2022-11-12T06:37:08.773Z,7.57
2022-11-12T06:39:36.515Z,7.60
2022-11-12T06:42:04.439Z,7.83
2022-11-12T06:44:32.049Z,7.57
2022-11-12T06:46:59.637Z,7.97
2022-11-12T06:49:27.186Z,8.30
2022-11-12T06:51:54.872Z,8.33
2022-11-12T06:54:23.942Z,8.03
2022-11-12T06:56:51.552Z,8.00
2022-11-12T06:59:21.845Z,8.40
2022-11-12T07:01:49.541Z,8.43
2022-11-12T07:04:17.440Z,8.17
2022-11-12T07:06:45.052Z,8.80
2022-11-12T07:09:12.919Z,8.80
2022-11-12T07:11:41.920Z,7.83
2022-11-12T07:14:09.627Z,8.23
2022-11-12T07:16:37.345Z,7.30
2022-11-12T07:19:05.116Z,7.10
2022-11-12T07:21:32.763Z,7.40
2022-11-12T07:24:00.379Z,6.10
2022-11-12T07:26:28.532Z,5.60
2022-11-12T07:28:57.442Z,5.90
2022-11-12T07:31:26.830Z,4.80
2022-11-12T07:33:56.231Z,5.00
2022-11-12T07:36:23.843Z,4.27
2022-11-12T07:38:53.560Z,4.63
2022-11-12T07:41:22.808Z,4.50
2022-11-12T07:43:53.158Z,4.17
2022-11-12T07:46:24.444Z,4.90
2022-11-12T07:48:52.759Z,4.10
2022-11-12T07:51:22.288Z,4.33
2022-11-12T07:53:56.247Z,3.90
2022-11-12T07:56:27.945Z,3.63
2022-11-12T07:58:55.823Z,4.37
2022-11-12T08:01:29.976Z,4.10
2022-11-12T08:03:58.132Z,4.77
2022-11-12T08:06:26.590Z,4.37
2022-11-12T08:08:55.055Z,4.50
2022-11-12T08:11:22.985Z,4.77
2022-11-12T08:13:51.027Z,5.40
2022-11-12T08:16:19.064Z,5.70
2022-11-12T08:18:48.871Z,6.03
2022-11-12T08:21:17.929Z,5.30
2022-11-12T08:23:46.376Z,4.80
2022-11-12T08:26:16.242Z,5.50
2022-11-12T08:28:44.020Z,5.43
2022-11-12T08:31:13.711Z,5.50
2022-11-12T08:33:41.781Z,4.60
2022-11-12T08:36:15.426Z,4.97
2022-11-12T08:38:43.692Z,5.27
2022-11-12T08:41:13.310Z,4.77
2022-11-12T08:43:42.416Z,4.70
2022-11-12T08:46:10.135Z,5.07
2022-11-12T08:48:39.946Z,4.93
2022-11-12T08:51:08.307Z,4.67
2022-11-12T08:53:37.339Z,4.90
2022-11-12T08:56:05.633Z,4.97
2022-11-12T08:58:33.257Z,5.20
2022-11-12T09:01:06.302Z,4.23
2022-11-12T09:03:34.173Z,4.77
2022-11-12T09:06:06.275Z,5.40
2022-11-12T09:08:36.049Z,6.17
2022-11-12T09:11:05.354Z,5.87
2022-11-12T09:13:33.244Z,7.67
2022-11-12T09:16:05.380Z,7.17
2022-11-12T09:18:35.566Z,7.07
2022-11-12T09:21:05.402Z,7.33
2022-11-12T09:23:35.007Z,6.40
2022-11-12T09:26:02.768Z,6.13
2022-11-12T09:28:31.900Z,5.57
2022-11-12T09:31:01.585Z,5.50
2022-11-12T09:33:32.289Z,6.10
2022-11-12T09:36:02.314Z,6.17
2022-11-12T09:38:30.434Z,6.13
2022-11-12T09:41:18.843Z,6.70
2022-11-12T09:43:51.497Z,6.33
2022-11-12T09:46:29.484Z,7.10
2022-11-12T09:49:03.542Z,6.87
2022-11-12T09:51:35.154Z,7.77
2022-11-12T09:54:11.934Z,10.27
2022-11-12T09:56:39.617Z,7.80
2022-11-12T09:59:12.830Z,7.67
2022-11-12T10:01:50.099Z,9.70
2022-11-12T10:04:41.279Z,8.07
2022-11-12T10:07:16.659Z,7.80
2022-11-12T10:09:56.357Z,7.63
2022-11-12T10:12:32.743Z,7.10
2022-11-12T10:16:12.195Z,7.57
2022-11-12T10:18:51.878Z,7.07
2022-11-12T10:21:29.085Z,7.60
2022-11-12T10:23:58.555Z,7.03
2022-11-12T10:26:27.854Z,7.83
2022-11-12T10:29:09.094Z,7.43
2022-11-12T10:31:38.879Z,7.00
2022-11-12T10:34:16.891Z,6.83
2022-11-12T10:36:49.801Z,7.50
2022-11-12T10:39:35.370Z,7.90
2022-11-12T10:42:05.349Z,7.97
2022-11-12T10:44:32.976Z,7.57
2022-11-12T10:47:27.405Z,8.17
2022-11-12T10:50:14.896Z,7.97
2022-11-12T10:52:54.885Z,7.80
2022-11-12T10:55:25.638Z,7.40
2022-11-12T10:58:19.568Z,7.97
2022-11-12T11:01:00.054Z,8.50
2022-11-12T11:03:32.956Z,8.37
2022-11-12T11:06:03.360Z,8.90
2022-11-12T11:08:43.074Z,8.80
2022-11-12T11:11:24.748Z,8.97
2022-11-12T11:13:55.751Z,9.03
2022-11-12T11:16:26.809Z,9.37
2022-11-12T11:18:59.010Z,8.40
2022-11-12T11:21:59.052Z,8.70
2022-11-12T11:24:37.873Z,8.50
2022-11-12T11:27:15.587Z,8.33
2022-11-12T11:29:57.020Z,9.47
2022-11-12T11:32:39.169Z,8.63
2022-11-12T11:35:21.582Z,8.80
2022-11-12T11:38:03.386Z,8.20
2022-11-12T11:40:35.080Z,8.73
2022-11-12T11:43:18.946Z,8.60
2022-11-12T11:46:07.805Z,8.70
2022-11-12T11:48:50.659Z,8.47
2022-11-12T11:51:42.165Z,7.93
2022-11-12T11:54:26.740Z,8.17
2022-11-12T11:56:59.132Z,8.50
2022-11-12T11:59:37.572Z,8.37
2022-11-12T12:02:39.318Z,8.20
2022-11-12T12:05:23.386Z,8.23
2022-11-12T12:07:59.695Z,8.43
2022-11-12T12:11:06.378Z,8.33
2022-11-12T12:13:39.098Z,8.07
2022-11-12T12:16:26.635Z,7.77
2022-11-12T12:19:02.462Z,7.33
2022-11-12T12:21:34.202Z,7.93
2022-11-12T12:24:07.440Z,7.93
2022-11-12T12:26:41.066Z,7.67
2022-11-12T12:29:15.354Z,7.87
2022-11-12T12:31:51.803Z,7.40
2022-11-12T12:34:24.165Z,7.57
2022-11-12T12:36:57.196Z,7.70
2022-11-12T12:39:28.000Z,7.70
2022-11-12T12:42:00.212Z,7.90
2022-11-12T12:44:45.013Z,7.33
2022-11-12T12:47:15.146Z,7.67
2022-11-12T12:49:44.404Z,8.53
2022-11-12T12:52:14.270Z,12.67
2022-11-12T12:54:58.458Z,8.80
2022-11-12T12:57:35.859Z,8.60
2022-11-12T13:00:39.114Z,7.83
2022-11-12T13:03:07.147Z,8.13
2022-11-12T13:05:37.275Z,7.57
2022-11-12T13:08:09.838Z,7.40
2022-11-12T13:10:59.583Z,8.17
2022-11-12T13:13:32.411Z,7.30
2022-11-12T13:16:01.894Z,7.70
2022-11-12T13:19:02.009Z,7.80
2022-11-12T13:21:30.314Z,7.90
2022-11-12T13:24:10.799Z,8.37
2022-11-12T13:26:46.202Z,7.60
2022-11-12T13:29:22.950Z,7.63
2022-11-12T13:31:51.715Z,7.10
2022-11-12T13:34:22.684Z,7.37
2022-11-12T13:36:59.314Z,7.80
2022-11-12T13:39:26.945Z,7.67
2022-11-12T13:42:17.639Z,7.33
2022-11-12T13:44:45.991Z,7.60
2022-11-12T13:47:17.397Z,7.33
2022-11-12T13:49:47.334Z,7.20
2022-11-12T13:52:16.148Z,7.40
2022-11-12T13:54:43.729Z,7.40
2022-11-12T13:57:24.845Z,6.90
2022-11-12T14:00:20.696Z,6.87
2022-11-12T14:02:53.133Z,6.90
2022-11-12T14:05:23.655Z,7.13
2022-11-12T14:08:03.039Z,6.60
2022-11-12T14:10:42.154Z,7.30
2022-11-12T14:13:40.037Z,6.47
2022-11-12T14:16:21.465Z,6.60
2022-11-12T14:19:08.388Z,6.90
2022-11-12T14:21:36.061Z,6.47
2022-11-12T14:24:05.360Z,6.77
2022-11-12T14:26:38.175Z,6.43
2022-11-12T14:29:07.384Z,6.30
2022-11-12T14:31:34.995Z,6.23
2022-11-12T14:34:21.984Z,6.27
2022-11-12T14:36:50.629Z,6.87
2022-11-12T14:39:18.205Z,7.33
2022-11-12T14:41:49.103Z,7.83
2022-11-12T14:44:23.287Z,8.10
2022-11-12T14:46:53.711Z,8.43
2022-11-12T14:49:28.399Z,8.77
2022-11-12T14:52:04.133Z,9.73
2022-11-12T14:54:35.558Z,9.57
2022-11-12T14:57:05.740Z,11.50
2022-11-12T14:59:34.962Z,10.07
2022-11-12T15:05:01.303Z,11.07
2022-11-12T15:07:32.209Z,10.27
2022-11-12T15:10:00.485Z,10.43
2022-11-12T15:12:32.146Z,9.97
2022-11-12T15:15:11.250Z,9.30
2022-11-12T15:17:39.330Z,9.30
2022-11-12T15:20:14.905Z,7.63
2022-11-12T15:22:49.485Z,7.90
2022-11-12T15:25:25.476Z,7.67
2022-11-12T15:27:53.331Z,7.47
2022-11-12T15:30:25.321Z,7.87
2022-11-12T15:33:09.135Z,8.23
2022-11-12T15:35:39.310Z,7.90
2022-11-12T15:38:13.078Z,8.30
2022-11-12T15:40:47.160Z,9.10
2022-11-12T15:43:19.718Z,8.50
2022-11-12T15:45:53.829Z,9.43
2022-11-12T15:48:21.700Z,9.07
2022-11-12T15:50:49.565Z,8.63
2022-11-12T15:53:17.225Z,8.77
2022-11-12T15:55:46.144Z,8.93
2022-11-12T15:58:19.423Z,9.10
2022-11-12T16:00:47.719Z,9.50
2022-11-12T16:03:19.325Z,8.93
2022-11-12T16:05:48.406Z,8.30
2022-11-12T16:08:16.212Z,8.33
2022-11-12T16:10:46.072Z,8.57
2022-11-12T16:13:20.108Z,9.00
2022-11-12T16:15:51.090Z,8.30
2022-11-12T16:18:20.055Z,8.67
2022-11-12T16:20:48.548Z,7.70
2022-11-12T16:23:16.185Z,7.97
2022-11-12T16:25:44.974Z,7.80
2022-11-12T16:28:15.522Z,8.43
2022-11-12T16:30:44.875Z,9.13
2022-11-12T16:33:13.643Z,8.63
2022-11-12T16:35:42.899Z,9.23
2022-11-12T16:38:14.722Z,9.13
2022-11-12T16:40:43.010Z,9.03
2022-11-12T16:43:10.669Z,8.77
2022-11-12T16:45:40.510Z,8.53
2022-11-12T16:48:15.307Z,8.37
2022-11-12T16:50:44.285Z,9.27
2022-11-12T16:53:11.859Z,8.37
2022-11-12T16:55:39.489Z,9.37
2022-11-12T16:58:08.191Z,9.98
2022-11-12T17:00:35.929Z,9.47
2022-11-12T17:03:03.889Z,9.00
2022-11-12T17:05:31.498Z,9.90
2022-11-12T17:08:00.474Z,9.57
2022-11-12T17:10:28.128Z,9.23
2022-11-12T17:12:55.994Z,8.60
2022-11-12T17:15:23.642Z,7.60
2022-11-12T17:17:54.274Z,8.43
2022-11-12T17:20:21.915Z,8.17
2022-11-12T17:22:49.678Z,8.17
2022-11-12T17:25:18.709Z,8.03
2022-11-12T17:27:46.265Z,8.07
2022-11-12T17:30:14.484Z,8.10
2022-11-12T17:32:42.125Z,7.87
2022-11-12T17:35:09.781Z,7.40
2022-11-12T17:37:37.388Z,8.47
2022-11-12T17:40:06.511Z,7.67
2022-11-12T17:42:36.788Z,8.10
2022-11-12T17:45:04.576Z,6.90
2022-11-12T17:47:34.618Z,7.30
2022-11-12T17:50:06.517Z,7.97
2022-11-12T17:52:34.157Z,7.97
2022-11-12T17:55:01.749Z,7.73
2022-11-12T17:57:29.333Z,8.63
2022-11-12T17:59:58.548Z,9.23
2022-11-12T18:02:26.396Z,8.23
2022-11-12T18:04:54.118Z,7.97
2022-11-12T18:07:21.833Z,8.80
2022-11-12T18:09:49.469Z,8.60
2022-11-12T18:12:17.024Z,9.30
2022-11-12T18:14:44.652Z,8.50
2022-11-12T18:17:14.468Z,9.43
2022-11-12T18:19:42.018Z,9.20
2022-11-12T18:22:12.272Z,8.80
2022-11-12T18:24:39.834Z,8.77
2022-11-12T18:27:07.558Z,8.33
2022-11-12T18:29:35.970Z,9.17
2022-11-12T18:32:03.566Z,8.97
2022-11-12T18:34:32.521Z,9.00
2022-11-12T18:37:00.335Z,8.73
2022-11-12T18:39:28.552Z,9.70
2022-11-12T18:41:56.127Z,9.70
2022-11-12T18:44:26.112Z,8.97
2022-11-12T18:46:53.945Z,10.20
2022-11-12T18:49:21.561Z,9.97
2022-11-12T18:51:50.555Z,9.67
2022-11-12T18:54:18.142Z,9.17
2022-11-12T18:56:45.723Z,9.47
2022-11-12T18:59:13.337Z,9.93
2022-11-12T19:01:40.989Z,9.43
2022-11-12T19:04:12.064Z,9.13
2022-11-12T19:06:39.734Z,9.40
2022-11-12T19:09:11.388Z,9.30
2022-11-12T19:11:39.027Z,10.10
2022-11-12T19:14:06.634Z,9.53
2022-11-12T19:16:34.250Z,9.77
2022-11-12T19:19:01.883Z,8.87
2022-11-12T19:21:29.470Z,9.27
2022-11-12T19:23:57.577Z,9.70
2022-11-12T19:26:26.644Z,10.70
2022-11-12T19:28:55.138Z,9.20
2022-11-12T19:31:24.330Z,9.40
2022-11-12T19:33:54.197Z,9.97
2022-11-12T19:36:26.591Z,8.80
2022-11-12T19:38:57.556Z,9.30
2022-11-12T19:41:27.161Z,9.07
2022-11-12T19:43:54.944Z,10.03
2022-11-12T19:46:22.549Z,9.90
2022-11-12T19:48:53.846Z,9.30
2022-11-12T19:51:21.475Z,9.67
2022-11-12T19:53:49.216Z,10.20
2022-11-12T19:56:18.800Z,10.67
2022-11-12T19:58:48.882Z,12.17
2022-11-12T20:01:18.520Z,11.03
2022-11-12T20:03:46.753Z,9.70
2022-11-12T20:06:19.891Z,9.77
2022-11-12T20:08:48.078Z,10.17
2022-11-12T20:11:18.624Z,9.50
2022-11-12T20:13:47.803Z,9.73
2022-11-12T20:16:22.234Z,9.30
2022-11-12T20:18:54.249Z,11.13
2022-11-12T20:21:21.921Z,10.97
2022-11-12T20:23:49.557Z,11.60
2022-11-12T20:26:17.331Z,10.37
2022-11-12T20:28:45.101Z,10.30
2022-11-12T20:31:15.874Z,10.37
2022-11-12T20:33:43.604Z,10.47
2022-11-12T20:36:12.903Z,10.03
2022-11-12T20:38:41.660Z,10.43
2022-11-12T20:41:14.372Z,9.73
2022-11-12T20:43:42.303Z,9.73
2022-11-12T20:46:12.050Z,9.33
2022-11-12T20:48:43.476Z,9.93
2022-11-12T20:51:28.975Z,9.77
2022-11-12T20:54:00.262Z,10.37
2022-11-12T20:56:30.039Z,9.00
2022-11-12T20:58:58.109Z,9.47
2022-11-12T21:01:28.140Z,9.60
2022-11-12T21:03:58.145Z,9.13
2022-11-12T21:06:28.340Z,9.33
2022-11-12T21:08:59.011Z,9.53
2022-11-12T21:11:28.111Z,10.03
2022-11-12T21:13:55.730Z,10.20
2022-11-12T21:16:23.292Z,10.30
2022-11-12T21:18:50.903Z,9.17
2022-11-12T21:21:21.175Z,9.50
2022-11-12T21:23:50.327Z,9.60
2022-11-12T21:26:19.895Z,9.03
2022-11-12T21:28:49.209Z,10.17
2022-11-12T21:31:19.439Z,9.63
2022-11-12T21:33:50.358Z,8.87
2022-11-12T21:36:18.146Z,7.90
2022-11-12T21:38:47.572Z,9.03
2022-11-12T21:41:17.069Z,9.33
2022-11-12T21:43:45.664Z,8.63
2022-11-12T21:46:15.481Z,9.57
2022-11-12T21:48:43.580Z,9.00
2022-11-12T21:51:13.139Z,9.33
2022-11-12T21:53:41.473Z,9.63
2022-11-12T21:56:13.696Z,9.10
2022-11-12T21:58:41.603Z,8.70
2022-11-12T22:01:11.097Z,8.60
2022-11-12T22:03:39.417Z,9.17
2022-11-12T22:06:08.165Z,9.23
2022-11-12T22:08:35.808Z,9.07
2022-11-12T22:11:04.796Z,10.47
2022-11-12T22:13:34.360Z,9.13
2022-11-12T22:16:05.946Z,10.40
2022-11-12T22:18:34.175Z,11.07
2022-11-12T22:21:03.601Z,11.47
2022-11-12T22:23:32.916Z,10.47
2022-11-12T22:26:00.749Z,11.50
2022-11-12T22:28:28.839Z,10.23
2022-11-12T22:31:04.022Z,9.90
2022-11-12T22:33:31.642Z,9.67
2022-11-12T22:36:02.336Z,9.60
2022-11-12T22:38:34.207Z,9.27
2022-11-12T22:41:03.005Z,9.20
2022-11-12T22:43:30.593Z,8.80
2022-11-12T22:46:04.286Z,10.23
2022-11-12T22:48:31.852Z,9.23
2022-11-12T22:51:00.754Z,9.03
2022-11-12T22:53:29.203Z,9.63
2022-11-12T22:55:56.978Z,10.40
2022-11-12T22:58:24.708Z,9.50
2022-11-12T23:00:52.939Z,10.07
2022-11-12T23:03:21.946Z,10.07
2022-11-12T23:05:49.501Z,9.07
2022-11-12T23:08:17.072Z,9.17
2022-11-12T23:10:46.073Z,9.37
2022-11-12T23:13:13.767Z,8.70
2022-11-12T23:15:43.691Z,9.30
2022-11-12T23:18:11.281Z,9.37
2022-11-12T23:20:40.524Z,9.27
2022-11-12T23:23:08.160Z,9.30
2022-11-12T23:25:36.899Z,9.10
2022-11-12T23:28:07.658Z,9.27
2022-11-12T23:30:35.403Z,9.83
2022-11-12T23:33:03.338Z,8.73
2022-11-12T23:35:31.560Z,9.50
2022-11-12T23:38:00.512Z,8.80
2022-11-12T23:40:31.205Z,10.20
2022-11-12T23:42:58.961Z,9.57
2022-11-12T23:45:26.596Z,9.93
2022-11-12T23:47:55.803Z,10.47
2022-11-12T23:50:23.471Z,10.40
2022-11-12T23:52:51.087Z,9.90
2022-11-12T23:55:20.110Z,10.20
2022-11-12T23:57:47.696Z,11.20
